sensor_id;sensor_type;location;lat;lon;timestamp;P1;durP1;ratioP1;P2;durP2;ratioP2
45548;SDS011;31270;48.328;10.096;2023-09-08T00:00:05;17.42;;;12.40;;
45548;SDS011;31270;48.328;10.096;2023-09-08T00:02:32;16.27;;;12.82;;
45548;SDS011;31270;48.328;10.096;2023-09-08T00:04:57;14.35;;;11.40;;
45548;SDS011;31270;48.328;10.096;2023-09-08T00:07:23;18.48;;;11.70;;
45548;SDS011;31270;48.328;10.096;2023-09-08T00:09:48;14.50;;;11.98;;
45548;SDS011;31270;48.328;10.096;2023-09-08T00:12:14;16.60;;;12.52;;
45548;SDS011;31270;48.328;10.096;2023-09-08T00:14:40;14.77;;;11.75;;
45548;SDS011;31270;48.328;10.096;2023-09-08T00:17:05;16.55;;;12.18;;
45548;SDS011;31270;48.328;10.096;2023-09-08T00:19:31;15.20;;;12.40;;
45548;SDS011;31270;48.328;10.096;2023-09-08T00:21:56;16.60;;;11.95;;
45548;SDS011;31270;48.328;10.096;2023-09-08T00:24:23;15.55;;;12.02;;
45548;SDS011;31270;48.328;10.096;2023-09-08T00:26:49;20.02;;;12.95;;
45548;SDS011;31270;48.328;10.096;2023-09-08T00:29:14;17.83;;;13.15;;
45548;SDS011;31270;48.328;10.096;2023-09-08T00:31:41;20.15;;;13.60;;
45548;SDS011;31270;48.328;10.096;2023-09-08T00:34:06;16.08;;;13.07;;
45548;SDS011;31270;48.328;10.096;2023-09-08T00:36:32;16.48;;;13.00;;
45548;SDS011;31270;48.328;10.096;2023-09-08T00:38:58;17.88;;;12.70;;
45548;SDS011;31270;48.328;10.096;2023-09-08T00:41:23;17.95;;;12.88;;
45548;SDS011;31270;48.328;10.096;2023-09-08T00:43:49;19.00;;;13.18;;
45548;SDS011;31270;48.328;10.096;2023-09-08T00:46:16;19.95;;;13.10;;
45548;SDS011;31270;48.328;10.096;2023-09-08T00:48:42;16.30;;;12.70;;
45548;SDS011;31270;48.328;10.096;2023-09-08T00:51:08;21.15;;;13.85;;
45548;SDS011;31270;48.328;10.096;2023-09-08T00:53:35;17.85;;;13.13;;
45548;SDS011;31270;48.328;10.096;2023-09-08T00:56:02;19.80;;;13.20;;
45548;SDS011;31270;48.328;10.096;2023-09-08T00:58:28;17.65;;;12.93;;
45548;SDS011;31270;48.328;10.096;2023-09-08T01:00:54;17.05;;;13.20;;
45548;SDS011;31270;48.328;10.096;2023-09-08T01:03:22;18.63;;;13.43;;
45548;SDS011;31270;48.328;10.096;2023-09-08T01:05:48;18.33;;;13.00;;
45548;SDS011;31270;48.328;10.096;2023-09-08T01:08:15;20.15;;;13.75;;
45548;SDS011;31270;48.328;10.096;2023-09-08T01:10:42;15.20;;;12.25;;
45548;SDS011;31270;48.328;10.096;2023-09-08T01:13:08;19.92;;;12.63;;
45548;SDS011;31270;48.328;10.096;2023-09-08T01:15:34;17.10;;;13.35;;
45548;SDS011;31270;48.328;10.096;2023-09-08T01:17:59;17.67;;;12.90;;
45548;SDS011;31270;48.328;10.096;2023-09-08T01:20:35;19.75;;;13.35;;
45548;SDS011;31270;48.328;10.096;2023-09-08T01:23:26;19.73;;;13.27;;
45548;SDS011;31270;48.328;10.096;2023-09-08T01:26:04;18.05;;;13.68;;
45548;SDS011;31270;48.328;10.096;2023-09-08T01:28:34;18.87;;;13.60;;
45548;SDS011;31270;48.328;10.096;2023-09-08T01:31:01;19.90;;;13.63;;
45548;SDS011;31270;48.328;10.096;2023-09-08T01:33:27;18.83;;;13.65;;
45548;SDS011;31270;48.328;10.096;2023-09-08T01:35:53;18.85;;;13.80;;
45548;SDS011;31270;48.328;10.096;2023-09-08T01:38:20;19.50;;;13.60;;
45548;SDS011;31270;48.328;10.096;2023-09-08T01:40:46;19.80;;;14.27;;
45548;SDS011;31270;48.328;10.096;2023-09-08T01:43:12;20.65;;;13.95;;
45548;SDS011;31270;48.328;10.096;2023-09-08T01:45:37;19.33;;;14.38;;
45548;SDS011;31270;48.328;10.096;2023-09-08T01:48:03;19.98;;;13.93;;
45548;SDS011;31270;48.328;10.096;2023-09-08T01:50:29;18.55;;;14.02;;
45548;SDS011;31270;48.328;10.096;2023-09-08T01:52:54;19.17;;;14.45;;
45548;SDS011;31270;48.328;10.096;2023-09-08T01:55:20;18.75;;;13.80;;
45548;SDS011;31270;48.328;10.096;2023-09-08T01:57:46;19.58;;;13.32;;
45548;SDS011;31270;48.328;10.096;2023-09-08T02:00:12;19.38;;;14.68;;
45548;SDS011;31270;48.328;10.096;2023-09-08T02:02:38;18.95;;;13.98;;
45548;SDS011;31270;48.328;10.096;2023-09-08T02:05:03;19.85;;;14.45;;
45548;SDS011;31270;48.328;10.096;2023-09-08T02:07:30;18.77;;;14.23;;
45548;SDS011;31270;48.328;10.096;2023-09-08T02:09:56;22.75;;;14.48;;
45548;SDS011;31270;48.328;10.096;2023-09-08T02:12:22;22.50;;;14.35;;
45548;SDS011;31270;48.328;10.096;2023-09-08T02:14:47;21.85;;;13.80;;
45548;SDS011;31270;48.328;10.096;2023-09-08T02:17:13;22.30;;;14.02;;
45548;SDS011;31270;48.328;10.096;2023-09-08T02:19:38;20.50;;;14.43;;
45548;SDS011;31270;48.328;10.096;2023-09-08T02:22:04;20.15;;;14.23;;
45548;SDS011;31270;48.328;10.096;2023-09-08T02:24:30;22.70;;;14.57;;
45548;SDS011;31270;48.328;10.096;2023-09-08T02:26:55;23.27;;;14.65;;
45548;SDS011;31270;48.328;10.096;2023-09-08T02:29:21;17.63;;;14.25;;
45548;SDS011;31270;48.328;10.096;2023-09-08T02:31:47;21.00;;;13.63;;
45548;SDS011;31270;48.328;10.096;2023-09-08T02:34:13;18.13;;;13.52;;
45548;SDS011;31270;48.328;10.096;2023-09-08T02:36:39;20.15;;;14.38;;
45548;SDS011;31270;48.328;10.096;2023-09-08T02:39:05;19.70;;;14.57;;
45548;SDS011;31270;48.328;10.096;2023-09-08T02:41:32;19.67;;;14.90;;
45548;SDS011;31270;48.328;10.096;2023-09-08T02:43:57;20.43;;;14.23;;
45548;SDS011;31270;48.328;10.096;2023-09-08T02:46:23;19.85;;;14.25;;
45548;SDS011;31270;48.328;10.096;2023-09-08T02:48:49;20.42;;;14.55;;
45548;SDS011;31270;48.328;10.096;2023-09-08T02:51:15;21.92;;;15.30;;
45548;SDS011;31270;48.328;10.096;2023-09-08T02:53:41;22.47;;;15.77;;
45548;SDS011;31270;48.328;10.096;2023-09-08T02:56:07;21.57;;;15.80;;
45548;SDS011;31270;48.328;10.096;2023-09-08T02:58:34;19.77;;;14.85;;
45548;SDS011;31270;48.328;10.096;2023-09-08T03:01:13;18.85;;;14.18;;
45548;SDS011;31270;48.328;10.096;2023-09-08T03:03:44;21.45;;;15.05;;
45548;SDS011;31270;48.328;10.096;2023-09-08T03:06:10;20.42;;;15.30;;
45548;SDS011;31270;48.328;10.096;2023-09-08T03:08:36;20.58;;;15.25;;
45548;SDS011;31270;48.328;10.096;2023-09-08T03:11:02;19.60;;;15.10;;
45548;SDS011;31270;48.328;10.096;2023-09-08T03:13:30;22.53;;;15.50;;
45548;SDS011;31270;48.328;10.096;2023-09-08T03:15:56;23.55;;;15.38;;
45548;SDS011;31270;48.328;10.096;2023-09-08T03:18:22;19.67;;;14.30;;
45548;SDS011;31270;48.328;10.096;2023-09-08T03:20:49;21.58;;;15.32;;
45548;SDS011;31270;48.328;10.096;2023-09-08T03:23:15;25.43;;;17.03;;
45548;SDS011;31270;48.328;10.096;2023-09-08T03:25:41;21.48;;;15.15;;
45548;SDS011;31270;48.328;10.096;2023-09-08T03:28:07;24.17;;;16.63;;
45548;SDS011;31270;48.328;10.096;2023-09-08T03:30:33;21.65;;;15.10;;
45548;SDS011;31270;48.328;10.096;2023-09-08T03:32:58;21.17;;;16.50;;
45548;SDS011;31270;48.328;10.096;2023-09-08T03:35:24;21.58;;;16.42;;
45548;SDS011;31270;48.328;10.096;2023-09-08T03:37:50;21.38;;;16.80;;
45548;SDS011;31270;48.328;10.096;2023-09-08T03:40:15;26.53;;;17.63;;
45548;SDS011;31270;48.328;10.096;2023-09-08T03:42:41;22.17;;;16.20;;
45548;SDS011;31270;48.328;10.096;2023-09-08T03:45:08;24.83;;;16.53;;
45548;SDS011;31270;48.328;10.096;2023-09-08T03:47:33;20.47;;;16.30;;
45548;SDS011;31270;48.328;10.096;2023-09-08T03:50:05;23.38;;;16.23;;
45548;SDS011;31270;48.328;10.096;2023-09-08T03:52:31;24.90;;;17.53;;
45548;SDS011;31270;48.328;10.096;2023-09-08T03:54:56;22.43;;;15.83;;
45548;SDS011;31270;48.328;10.096;2023-09-08T03:57:22;22.00;;;16.77;;
45548;SDS011;31270;48.328;10.096;2023-09-08T03:59:48;18.98;;;15.20;;
45548;SDS011;31270;48.328;10.096;2023-09-08T04:02:14;21.43;;;16.70;;
45548;SDS011;31270;48.328;10.096;2023-09-08T04:04:39;21.23;;;16.27;;
45548;SDS011;31270;48.328;10.096;2023-09-08T04:07:05;22.23;;;17.17;;
45548;SDS011;31270;48.328;10.096;2023-09-08T04:09:30;27.20;;;17.27;;
45548;SDS011;31270;48.328;10.096;2023-09-08T04:11:56;27.40;;;17.43;;
45548;SDS011;31270;48.328;10.096;2023-09-08T04:14:22;23.47;;;16.27;;
45548;SDS011;31270;48.328;10.096;2023-09-08T04:16:52;26.07;;;18.43;;
45548;SDS011;31270;48.328;10.096;2023-09-08T04:19:18;27.30;;;19.17;;
45548;SDS011;31270;48.328;10.096;2023-09-08T04:21:44;28.73;;;20.03;;
45548;SDS011;31270;48.328;10.096;2023-09-08T04:24:09;27.37;;;18.83;;
45548;SDS011;31270;48.328;10.096;2023-09-08T04:26:35;25.43;;;18.60;;
45548;SDS011;31270;48.328;10.096;2023-09-08T04:29:01;26.23;;;19.27;;
45548;SDS011;31270;48.328;10.096;2023-09-08T04:31:27;25.05;;;19.02;;
45548;SDS011;31270;48.328;10.096;2023-09-08T04:33:53;27.43;;;18.80;;
45548;SDS011;31270;48.328;10.096;2023-09-08T04:36:19;26.00;;;19.30;;
45548;SDS011;31270;48.328;10.096;2023-09-08T04:38:44;28.00;;;19.53;;
45548;SDS011;31270;48.328;10.096;2023-09-08T04:41:10;26.03;;;19.27;;
45548;SDS011;31270;48.328;10.096;2023-09-08T04:43:35;27.93;;;19.50;;
45548;SDS011;31270;48.328;10.096;2023-09-08T04:46:01;32.63;;;21.50;;
45548;SDS011;31270;48.328;10.096;2023-09-08T04:48:28;29.23;;;20.40;;
45548;SDS011;31270;48.328;10.096;2023-09-08T04:50:54;28.67;;;20.37;;
45548;SDS011;31270;48.328;10.096;2023-09-08T04:53:20;29.13;;;20.27;;
45548;SDS011;31270;48.328;10.096;2023-09-08T04:55:45;31.27;;;20.77;;
45548;SDS011;31270;48.328;10.096;2023-09-08T04:58:11;29.00;;;20.67;;
45548;SDS011;31270;48.328;10.096;2023-09-08T05:00:40;32.00;;;22.07;;
45548;SDS011;31270;48.328;10.096;2023-09-08T05:03:05;30.33;;;21.70;;
45548;SDS011;31270;48.328;10.096;2023-09-08T05:05:31;33.63;;;22.40;;
45548;SDS011;31270;48.328;10.096;2023-09-08T05:07:57;34.07;;;22.27;;
45548;SDS011;31270;48.328;10.096;2023-09-08T05:10:23;33.17;;;22.37;;
45548;SDS011;31270;48.328;10.096;2023-09-08T05:12:49;33.47;;;23.17;;
45548;SDS011;31270;48.328;10.096;2023-09-08T05:15:14;38.83;;;23.57;;
45548;SDS011;31270;48.328;10.096;2023-09-08T05:17:41;30.97;;;21.70;;
45548;SDS011;31270;48.328;10.096;2023-09-08T05:20:08;32.43;;;21.00;;
45548;SDS011;31270;48.328;10.096;2023-09-08T05:22:34;32.47;;;22.50;;
45548;SDS011;31270;48.328;10.096;2023-09-08T05:25:01;30.03;;;20.73;;
45548;SDS011;31270;48.328;10.096;2023-09-08T05:27:27;31.25;;;20.95;;
45548;SDS011;31270;48.328;10.096;2023-09-08T05:29:53;29.75;;;20.67;;
45548;SDS011;31270;48.328;10.096;2023-09-08T05:32:18;29.08;;;19.65;;
45548;SDS011;31270;48.328;10.096;2023-09-08T05:34:44;27.00;;;18.52;;
45548;SDS011;31270;48.328;10.096;2023-09-08T05:37:12;28.38;;;18.25;;
45548;SDS011;31270;48.328;10.096;2023-09-08T05:39:38;23.23;;;18.02;;
45548;SDS011;31270;48.328;10.096;2023-09-08T05:42:04;24.48;;;16.95;;
45548;SDS011;31270;48.328;10.096;2023-09-08T05:44:30;24.80;;;17.75;;
45548;SDS011;31270;48.328;10.096;2023-09-08T05:46:55;21.20;;;17.20;;
45548;SDS011;31270;48.328;10.096;2023-09-08T05:49:21;22.77;;;16.88;;
45548;SDS011;31270;48.328;10.096;2023-09-08T05:51:47;20.83;;;15.95;;
45548;SDS011;31270;48.328;10.096;2023-09-08T05:54:12;22.08;;;17.13;;
45548;SDS011;31270;48.328;10.096;2023-09-08T05:56:38;21.83;;;16.90;;
45548;SDS011;31270;48.328;10.096;2023-09-08T05:59:04;20.27;;;16.60;;
45548;SDS011;31270;48.328;10.096;2023-09-08T06:01:30;20.75;;;15.70;;
45548;SDS011;31270;48.328;10.096;2023-09-08T06:03:57;20.25;;;15.55;;
45548;SDS011;31270;48.328;10.096;2023-09-08T06:06:22;23.00;;;16.58;;
45548;SDS011;31270;48.328;10.096;2023-09-08T06:08:48;23.77;;;17.13;;
45548;SDS011;31270;48.328;10.096;2023-09-08T06:11:14;20.67;;;15.38;;
45548;SDS011;31270;48.328;10.096;2023-09-08T06:13:40;20.50;;;16.27;;
45548;SDS011;31270;48.328;10.096;2023-09-08T06:16:05;20.35;;;16.13;;
45548;SDS011;31270;48.328;10.096;2023-09-08T06:18:31;25.25;;;16.98;;
45548;SDS011;31270;48.328;10.096;2023-09-08T06:20:56;21.95;;;16.65;;
45548;SDS011;31270;48.328;10.096;2023-09-08T06:23:22;25.23;;;16.48;;
45548;SDS011;31270;48.328;10.096;2023-09-08T06:25:48;23.23;;;16.25;;
45548;SDS011;31270;48.328;10.096;2023-09-08T06:28:14;20.05;;;16.08;;
45548;SDS011;31270;48.328;10.096;2023-09-08T06:30:40;22.73;;;16.58;;
45548;SDS011;31270;48.328;10.096;2023-09-08T06:33:07;21.85;;;16.25;;
45548;SDS011;31270;48.328;10.096;2023-09-08T06:35:33;20.83;;;16.65;;
45548;SDS011;31270;48.328;10.096;2023-09-08T06:37:59;19.30;;;15.82;;
45548;SDS011;31270;48.328;10.096;2023-09-08T06:40:25;21.92;;;15.82;;
45548;SDS011;31270;48.328;10.096;2023-09-08T06:42:51;18.63;;;15.18;;
45548;SDS011;31270;48.328;10.096;2023-09-08T06:45:17;20.05;;;15.93;;
45548;SDS011;31270;48.328;10.096;2023-09-08T06:47:43;18.35;;;15.55;;
45548;SDS011;31270;48.328;10.096;2023-09-08T06:50:09;18.42;;;14.88;;
45548;SDS011;31270;48.328;10.096;2023-09-08T06:52:35;20.83;;;15.52;;
45548;SDS011;31270;48.328;10.096;2023-09-08T06:55:04;19.20;;;15.73;;
45548;SDS011;31270;48.328;10.096;2023-09-08T06:57:33;19.88;;;15.40;;
45548;SDS011;31270;48.328;10.096;2023-09-08T06:59:58;17.83;;;14.65;;
45548;SDS011;31270;48.328;10.096;2023-09-08T07:02:24;18.95;;;15.07;;
45548;SDS011;31270;48.328;10.096;2023-09-08T07:04:52;18.02;;;14.40;;
45548;SDS011;31270;48.328;10.096;2023-09-08T07:07:21;20.20;;;15.57;;
45548;SDS011;31270;48.328;10.096;2023-09-08T07:09:48;16.92;;;14.52;;
45548;SDS011;31270;48.328;10.096;2023-09-08T07:12:13;19.73;;;14.60;;
45548;SDS011;31270;48.328;10.096;2023-09-08T07:14:39;16.05;;;14.02;;
45548;SDS011;31270;48.328;10.096;2023-09-08T07:17:04;16.70;;;13.43;;
45548;SDS011;31270;48.328;10.096;2023-09-08T07:19:30;18.75;;;13.77;;
45548;SDS011;31270;48.328;10.096;2023-09-08T07:21:55;17.00;;;12.50;;
45548;SDS011;31270;48.328;10.096;2023-09-08T07:24:21;16.55;;;14.07;;
45548;SDS011;31270;48.328;10.096;2023-09-08T07:26:47;16.50;;;13.70;;
45548;SDS011;31270;48.328;10.096;2023-09-08T07:29:13;20.58;;;14.45;;
45548;SDS011;31270;48.328;10.096;2023-09-08T07:31:41;15.35;;;12.80;;
45548;SDS011;31270;48.328;10.096;2023-09-08T07:34:10;18.13;;;14.18;;
45548;SDS011;31270;48.328;10.096;2023-09-08T07:36:42;14.85;;;12.77;;
45548;SDS011;31270;48.328;10.096;2023-09-08T07:39:16;16.88;;;13.75;;
45548;SDS011;31270;48.328;10.096;2023-09-08T07:41:42;15.52;;;13.48;;
45548;SDS011;31270;48.328;10.096;2023-09-08T07:44:11;15.95;;;12.52;;
45548;SDS011;31270;48.328;10.096;2023-09-08T07:46:40;16.77;;;12.85;;
45548;SDS011;31270;48.328;10.096;2023-09-08T07:49:06;17.02;;;13.18;;
45548;SDS011;31270;48.328;10.096;2023-09-08T07:51:34;14.82;;;12.48;;
45548;SDS011;31270;48.328;10.096;2023-09-08T07:54:20;16.58;;;12.90;;
45548;SDS011;31270;48.328;10.096;2023-09-08T07:56:49;17.20;;;13.43;;
45548;SDS011;31270;48.328;10.096;2023-09-08T07:59:14;15.70;;;12.73;;
45548;SDS011;31270;48.328;10.096;2023-09-08T08:01:43;16.00;;;11.95;;
45548;SDS011;31270;48.328;10.096;2023-09-08T08:04:15;17.60;;;12.48;;
45548;SDS011;31270;48.328;10.096;2023-09-08T08:06:49;17.42;;;13.18;;
45548;SDS011;31270;48.328;10.096;2023-09-08T08:09:15;16.75;;;13.05;;
45548;SDS011;31270;48.328;10.096;2023-09-08T08:11:41;16.17;;;12.50;;
45548;SDS011;31270;48.328;10.096;2023-09-08T08:14:09;14.38;;;12.35;;
45548;SDS011;31270;48.328;10.096;2023-09-08T08:16:36;13.82;;;12.30;;
45548;SDS011;31270;48.328;10.096;2023-09-08T08:19:02;13.88;;;12.38;;
45548;SDS011;31270;48.328;10.096;2023-09-08T08:21:28;13.93;;;12.35;;
45548;SDS011;31270;48.328;10.096;2023-09-08T08:23:53;13.88;;;12.38;;
45548;SDS011;31270;48.328;10.096;2023-09-08T08:26:19;13.65;;;12.25;;
45548;SDS011;31270;48.328;10.096;2023-09-08T08:28:45;14.50;;;12.48;;
45548;SDS011;31270;48.328;10.096;2023-09-08T08:31:10;16.40;;;13.23;;
45548;SDS011;31270;48.328;10.096;2023-09-08T08:33:36;16.75;;;13.38;;
45548;SDS011;31270;48.328;10.096;2023-09-08T08:36:01;13.52;;;11.88;;
45548;SDS011;31270;48.328;10.096;2023-09-08T08:38:28;13.88;;;11.90;;
45548;SDS011;31270;48.328;10.096;2023-09-08T08:41:01;14.65;;;11.40;;
45548;SDS011;31270;48.328;10.096;2023-09-08T08:43:29;14.38;;;11.75;;
45548;SDS011;31270;48.328;10.096;2023-09-08T08:45:57;15.68;;;12.48;;
45548;SDS011;31270;48.328;10.096;2023-09-08T08:48:23;12.60;;;11.30;;
45548;SDS011;31270;48.328;10.096;2023-09-08T08:50:50;14.82;;;11.68;;
45548;SDS011;31270;48.328;10.096;2023-09-08T08:53:20;15.65;;;12.00;;
45548;SDS011;31270;48.328;10.096;2023-09-08T08:55:50;16.38;;;13.15;;
45548;SDS011;31270;48.328;10.096;2023-09-08T08:58:20;16.95;;;12.35;;
45548;SDS011;31270;48.328;10.096;2023-09-08T09:00:50;12.98;;;11.48;;
45548;SDS011;31270;48.328;10.096;2023-09-08T09:03:18;14.10;;;11.90;;
45548;SDS011;31270;48.328;10.096;2023-09-08T09:05:45;14.90;;;12.45;;
45548;SDS011;31270;48.328;10.096;2023-09-08T09:08:11;15.77;;;11.63;;
45548;SDS011;31270;48.328;10.096;2023-09-08T09:10:38;15.02;;;11.02;;
45548;SDS011;31270;48.328;10.096;2023-09-08T09:13:03;13.05;;;10.93;;
45548;SDS011;31270;48.328;10.096;2023-09-08T09:15:33;11.15;;;9.93;;
45548;SDS011;31270;48.328;10.096;2023-09-08T09:18:08;11.80;;;10.57;;
45548;SDS011;31270;48.328;10.096;2023-09-08T09:20:55;10.50;;;9.25;;
45548;SDS011;31270;48.328;10.096;2023-09-08T09:23:42;10.32;;;9.23;;
45548;SDS011;31270;48.328;10.096;2023-09-08T09:26:07;13.80;;;8.68;;
45548;SDS011;31270;48.328;10.096;2023-09-08T09:28:33;13.25;;;9.10;;
45548;SDS011;31270;48.328;10.096;2023-09-08T09:30:58;11.55;;;9.48;;
45548;SDS011;31270;48.328;10.096;2023-09-08T09:33:24;10.32;;;8.75;;
45548;SDS011;31270;48.328;10.096;2023-09-08T09:35:51;9.45;;;8.45;;
45548;SDS011;31270;48.328;10.096;2023-09-08T09:38:19;8.75;;;7.95;;
45548;SDS011;31270;48.328;10.096;2023-09-08T09:40:49;9.48;;;8.38;;
45548;SDS011;31270;48.328;10.096;2023-09-08T09:43:20;9.70;;;8.70;;
45548;SDS011;31270;48.328;10.096;2023-09-08T09:45:50;10.43;;;8.32;;
45548;SDS011;31270;48.328;10.096;2023-09-08T09:48:17;9.98;;;8.43;;
45548;SDS011;31270;48.328;10.096;2023-09-08T09:50:47;10.10;;;8.38;;
45548;SDS011;31270;48.328;10.096;2023-09-08T09:53:17;9.70;;;7.97;;
45548;SDS011;31270;48.328;10.096;2023-09-08T09:55:45;10.80;;;8.15;;
45548;SDS011;31270;48.328;10.096;2023-09-08T09:58:18;10.13;;;8.50;;
45548;SDS011;31270;48.328;10.096;2023-09-08T10:00:45;14.02;;;9.00;;
45548;SDS011;31270;48.328;10.096;2023-09-08T10:03:13;9.30;;;8.07;;
45548;SDS011;31270;48.328;10.096;2023-09-08T10:05:39;9.68;;;8.38;;
45548;SDS011;31270;48.328;10.096;2023-09-08T10:08:04;8.95;;;7.63;;
45548;SDS011;31270;48.328;10.096;2023-09-08T10:10:31;9.20;;;7.88;;
45548;SDS011;31270;48.328;10.096;2023-09-08T10:13:01;9.02;;;8.13;;
45548;SDS011;31270;48.328;10.096;2023-09-08T10:15:30;12.93;;;8.98;;
45548;SDS011;31270;48.328;10.096;2023-09-08T10:17:56;10.18;;;7.47;;
45548;SDS011;31270;48.328;10.096;2023-09-08T10:20:30;8.38;;;7.53;;
45548;SDS011;31270;48.328;10.096;2023-09-08T10:23:07;9.63;;;8.13;;
45548;SDS011;31270;48.328;10.096;2023-09-08T10:25:39;10.43;;;8.07;;
45548;SDS011;31270;48.328;10.096;2023-09-08T10:28:08;11.82;;;9.05;;
45548;SDS011;31270;48.328;10.096;2023-09-08T10:30:34;10.25;;;8.10;;
45548;SDS011;31270;48.328;10.096;2023-09-08T10:33:00;11.68;;;8.38;;
45548;SDS011;31270;48.328;10.096;2023-09-08T10:35:27;8.48;;;7.63;;
45548;SDS011;31270;48.328;10.096;2023-09-08T10:41:25;10.13;;;7.57;;
45548;SDS011;31270;48.328;10.096;2023-09-08T10:43:57;10.18;;;8.32;;
45548;SDS011;31270;48.328;10.096;2023-09-08T10:46:24;9.13;;;7.57;;
45548;SDS011;31270;48.328;10.096;2023-09-08T10:49:25;10.93;;;8.15;;
45548;SDS011;31270;48.328;10.096;2023-09-08T10:51:48;9.93;;;8.02;;
45548;SDS011;31270;48.328;10.096;2023-09-08T10:54:56;10.95;;;7.93;;
45548;SDS011;31270;48.328;10.096;2023-09-08T10:57:21;10.60;;;7.53;;
45548;SDS011;31270;48.328;10.096;2023-09-08T10:59:58;10.23;;;8.52;;
45548;SDS011;31270;48.328;10.096;2023-09-08T11:04:58;9.05;;;7.95;;
45548;SDS011;31270;48.328;10.096;2023-09-08T11:07:24;10.90;;;8.00;;
45548;SDS011;31270;48.328;10.096;2023-09-08T11:09:50;10.73;;;8.32;;
45548;SDS011;31270;48.328;10.096;2023-09-08T11:12:16;9.48;;;7.93;;
45548;SDS011;31270;48.328;10.096;2023-09-08T11:14:45;10.68;;;8.48;;
45548;SDS011;31270;48.328;10.096;2023-09-08T11:17:14;8.38;;;7.57;;
45548;SDS011;31270;48.328;10.096;2023-09-08T11:19:46;9.98;;;8.43;;
45548;SDS011;31270;48.328;10.096;2023-09-08T11:22:13;10.60;;;8.70;;
45548;SDS011;31270;48.328;10.096;2023-09-08T11:24:41;11.70;;;8.20;;
45548;SDS011;31270;48.328;10.096;2023-09-08T11:27:08;9.63;;;8.45;;
45548;SDS011;31270;48.328;10.096;2023-09-08T11:29:34;8.85;;;7.18;;
45548;SDS011;31270;48.328;10.096;2023-09-08T11:32:00;8.45;;;7.63;;
45548;SDS011;31270;48.328;10.096;2023-09-08T11:34:28;8.90;;;7.43;;
45548;SDS011;31270;48.328;10.096;2023-09-08T11:36:54;8.57;;;7.68;;
45548;SDS011;31270;48.328;10.096;2023-09-08T11:39:22;8.50;;;7.15;;
45548;SDS011;31270;48.328;10.096;2023-09-08T11:41:49;11.60;;;7.85;;
45548;SDS011;31270;48.328;10.096;2023-09-08T11:44:16;8.98;;;7.20;;
45548;SDS011;31270;48.328;10.096;2023-09-08T11:46:43;8.13;;;7.40;;
45548;SDS011;31270;48.328;10.096;2023-09-08T11:49:10;8.35;;;7.47;;
45548;SDS011;31270;48.328;10.096;2023-09-08T11:51:36;8.00;;;7.20;;
45548;SDS011;31270;48.328;10.096;2023-09-08T11:54:03;9.30;;;6.68;;
45548;SDS011;31270;48.328;10.096;2023-09-08T11:56:29;8.35;;;7.45;;
45548;SDS011;31270;48.328;10.096;2023-09-08T11:58:55;9.93;;;7.05;;
45548;SDS011;31270;48.328;10.096;2023-09-08T12:01:21;8.30;;;7.38;;
45548;SDS011;31270;48.328;10.096;2023-09-08T12:03:53;7.65;;;6.85;;
45548;SDS011;31270;48.328;10.096;2023-09-08T12:06:20;7.75;;;7.05;;
45548;SDS011;31270;48.328;10.096;2023-09-08T12:08:49;8.63;;;7.72;;
45548;SDS011;31270;48.328;10.096;2023-09-08T12:11:14;7.57;;;6.88;;
45548;SDS011;31270;48.328;10.096;2023-09-08T12:13:40;7.80;;;7.15;;
45548;SDS011;31270;48.328;10.096;2023-09-08T12:16:18;7.80;;;7.10;;
45548;SDS011;31270;48.328;10.096;2023-09-08T12:18:45;8.82;;;7.22;;
45548;SDS011;31270;48.328;10.096;2023-09-08T12:21:11;8.85;;;6.85;;
45548;SDS011;31270;48.328;10.096;2023-09-08T12:23:53;7.43;;;6.72;;
45548;SDS011;31270;48.328;10.096;2023-09-08T12:26:18;7.55;;;6.85;;
45548;SDS011;31270;48.328;10.096;2023-09-08T12:28:45;9.15;;;6.75;;
45548;SDS011;31270;48.328;10.096;2023-09-08T12:31:14;8.25;;;7.45;;
45548;SDS011;31270;48.328;10.096;2023-09-08T12:33:47;8.10;;;7.13;;
45548;SDS011;31270;48.328;10.096;2023-09-08T12:36:16;9.57;;;7.00;;
45548;SDS011;31270;48.328;10.096;2023-09-08T12:38:50;7.10;;;6.40;;
45548;SDS011;31270;48.328;10.096;2023-09-08T12:41:16;6.72;;;6.20;;
45548;SDS011;31270;48.328;10.096;2023-09-08T12:43:41;26.70;;;7.57;;
45548;SDS011;31270;48.328;10.096;2023-09-08T12:46:07;7.57;;;6.88;;
45548;SDS011;31270;48.328;10.096;2023-09-08T12:48:36;7.60;;;6.90;;
45548;SDS011;31270;48.328;10.096;2023-09-08T12:51:02;10.45;;;7.45;;
45548;SDS011;31270;48.328;10.096;2023-09-08T12:53:29;7.55;;;6.85;;
45548;SDS011;31270;48.328;10.096;2023-09-08T12:55:58;7.90;;;7.10;;
45548;SDS011;31270;48.328;10.096;2023-09-08T12:58:24;8.45;;;6.82;;
45548;SDS011;31270;48.328;10.096;2023-09-08T13:00:49;7.68;;;6.97;;
45548;SDS011;31270;48.328;10.096;2023-09-08T13:03:15;8.13;;;7.32;;
45548;SDS011;31270;48.328;10.096;2023-09-08T13:05:40;7.68;;;6.97;;
45548;SDS011;31270;48.328;10.096;2023-09-08T13:08:10;9.23;;;6.93;;
45548;SDS011;31270;48.328;10.096;2023-09-08T13:10:36;8.13;;;7.32;;
45548;SDS011;31270;48.328;10.096;2023-09-08T13:13:02;8.25;;;7.38;;
45548;SDS011;31270;48.328;10.096;2023-09-08T13:15:29;7.28;;;6.63;;
45548;SDS011;31270;48.328;10.096;2023-09-08T13:17:55;7.60;;;6.80;;
45548;SDS011;31270;48.328;10.096;2023-09-08T13:20:20;11.15;;;7.43;;
45548;SDS011;31270;48.328;10.096;2023-09-08T13:22:46;7.78;;;7.00;;
45548;SDS011;31270;48.328;10.096;2023-09-08T13:25:12;7.68;;;6.97;;
45548;SDS011;31270;48.328;10.096;2023-09-08T13:27:40;7.57;;;6.85;;
45548;SDS011;31270;48.328;10.096;2023-09-08T13:30:09;7.88;;;7.07;;
45548;SDS011;31270;48.328;10.096;2023-09-08T13:32:36;7.50;;;6.63;;
45548;SDS011;31270;48.328;10.096;2023-09-08T13:35:02;7.85;;;7.05;;
45548;SDS011;31270;48.328;10.096;2023-09-08T13:37:28;7.90;;;7.07;;
45548;SDS011;31270;48.328;10.096;2023-09-08T13:39:55;8.43;;;7.32;;
45548;SDS011;31270;48.328;10.096;2023-09-08T13:42:21;8.30;;;7.50;;
45548;SDS011;31270;48.328;10.096;2023-09-08T13:44:47;9.13;;;7.53;;
45548;SDS011;31270;48.328;10.096;2023-09-08T13:47:12;10.45;;;7.18;;
45548;SDS011;31270;48.328;10.096;2023-09-08T13:49:38;7.22;;;6.53;;
45548;SDS011;31270;48.328;10.096;2023-09-08T13:52:04;8.00;;;6.45;;
45548;SDS011;31270;48.328;10.096;2023-09-08T13:54:30;7.78;;;6.93;;
45548;SDS011;31270;48.328;10.096;2023-09-08T13:56:59;7.70;;;6.93;;
45548;SDS011;31270;48.328;10.096;2023-09-08T13:59:26;7.65;;;6.72;;
45548;SDS011;31270;48.328;10.096;2023-09-08T14:01:53;7.78;;;6.75;;
45548;SDS011;31270;48.328;10.096;2023-09-08T14:04:19;6.93;;;6.32;;
45548;SDS011;31270;48.328;10.096;2023-09-08T14:06:45;7.90;;;6.38;;
45548;SDS011;31270;48.328;10.096;2023-09-08T14:09:11;7.63;;;6.65;;
45548;SDS011;31270;48.328;10.096;2023-09-08T14:11:36;9.07;;;6.43;;
45548;SDS011;31270;48.328;10.096;2023-09-08T14:14:02;8.30;;;6.82;;
45548;SDS011;31270;48.328;10.096;2023-09-08T14:16:28;7.63;;;6.82;;
45548;SDS011;31270;48.328;10.096;2023-09-08T14:18:54;7.28;;;6.65;;
45548;SDS011;31270;48.328;10.096;2023-09-08T14:21:19;8.57;;;6.57;;